createdAt,value
2017-05-18T00:01:39.566Z,6.98
2017-05-18T00:04:10.356Z,6.12
2017-05-18T00:06:41.092Z,6.98
2017-05-18T00:09:11.856Z,8.78
2017-05-18T00:11:42.570Z,6.08
2017-05-18T00:14:13.328Z,6.58
2017-05-18T00:16:44.050Z,7.02
2017-05-18T00:19:14.905Z,6.90
2017-05-18T00:21:45.735Z,7.62
2017-05-18T00:24:16.556Z,7.52
2017-05-18T00:26:47.279Z,6.70
2017-05-18T00:29:18.055Z,6.80
2017-05-18T00:31:48.807Z,6.56
2017-05-18T00:34:19.575Z,6.96
2017-05-18T00:36:50.309Z,7.34
2017-05-18T00:39:21.084Z,7.24
2017-05-18T00:41:51.793Z,6.86
2017-05-18T00:44:22.552Z,6.96
2017-05-18T00:46:53.265Z,6.94
2017-05-18T00:49:24.015Z,6.04
2017-05-18T00:51:54.732Z,7.42
2017-05-18T00:54:25.537Z,7.40
2017-05-18T00:56:56.255Z,6.92
2017-05-18T00:59:27.004Z,7.82
2017-05-18T01:01:57.719Z,7.64
2017-05-18T01:04:28.486Z,8.42
2017-05-18T01:06:59.248Z,8.92
2017-05-18T01:09:30.055Z,7.92
2017-05-18T01:12:00.896Z,7.90
2017-05-18T01:14:31.670Z,8.62
2017-05-18T01:17:02.411Z,8.04
2017-05-18T01:19:32.807Z,7.90
2017-05-18T01:22:03.534Z,8.38
2017-05-18T01:24:35.172Z,8.56
2017-05-18T01:27:05.893Z,8.32
2017-05-18T01:29:36.728Z,8.70
2017-05-18T01:32:07.482Z,9.06
2017-05-18T01:34:37.908Z,8.34
2017-05-18T01:37:08.947Z,9.14
2017-05-18T01:39:39.351Z,9.26
2017-05-18T01:42:10.094Z,9.66
2017-05-18T01:44:40.838Z,8.58
2017-05-18T01:47:11.571Z,8.74
2017-05-18T01:49:42.351Z,9.50
2017-05-18T01:52:13.062Z,9.28
2017-05-18T01:54:43.867Z,9.30
2017-05-18T01:57:14.698Z,10.06
2017-05-18T01:59:45.491Z,10.62
2017-05-18T02:02:16.253Z,10.18
2017-05-18T02:04:47.071Z,9.86
2017-05-18T02:07:17.778Z,10.16
2017-05-18T02:09:48.562Z,9.80
2017-05-18T02:12:19.295Z,9.18
2017-05-18T02:14:50.077Z,9.26
2017-05-18T02:17:20.810Z,8.28
2017-05-18T02:19:51.602Z,10.88
2017-05-18T02:22:22.398Z,9.16
2017-05-18T02:24:53.989Z,8.76
2017-05-18T02:27:24.695Z,9.02
2017-05-18T02:29:56.178Z,9.70
2017-05-18T02:32:26.928Z,8.54
2017-05-18T02:34:57.480Z,9.26
2017-05-18T02:37:28.193Z,8.42
2017-05-18T02:39:58.944Z,9.40
2017-05-18T02:42:29.726Z,8.72
2017-05-18T02:45:00.491Z,8.74
2017-05-18T02:47:31.198Z,9.42
2017-05-18T02:50:01.951Z,8.50
2017-05-18T02:52:32.670Z,8.08
2017-05-18T02:55:03.828Z,9.06
2017-05-18T02:57:34.579Z,8.58
2017-05-18T03:00:04.971Z,9.02
2017-05-18T03:02:35.696Z,9.60
2017-05-18T03:05:06.494Z,8.22
2017-05-18T03:07:37.204Z,8.92
2017-05-18T03:10:08.310Z,8.00
2017-05-18T03:12:39.078Z,11.38
2017-05-18T03:15:09.893Z,8.32
2017-05-18T03:17:40.630Z,7.56
2017-05-18T03:20:11.982Z,8.38
2017-05-18T03:22:42.746Z,7.94
2017-05-18T03:25:13.544Z,8.66
2017-05-18T03:27:44.291Z,8.48
2017-05-18T03:30:15.127Z,8.28
2017-05-18T03:32:45.937Z,8.26
2017-05-18T03:35:16.845Z,8.24
2017-05-18T03:37:47.410Z,8.32
2017-05-18T03:40:18.187Z,8.96
2017-05-18T03:42:49.395Z,8.52
2017-05-18T03:45:20.189Z,9.10
2017-05-18T03:47:50.927Z,8.90
2017-05-18T03:50:21.691Z,9.60
2017-05-18T03:52:52.422Z,9.02
2017-05-18T03:55:23.256Z,8.72
2017-05-18T03:57:56.556Z,8.32
2017-05-18T04:00:27.375Z,8.94
2017-05-18T04:02:58.106Z,8.86
2017-05-18T04:05:29.321Z,9.48
2017-05-18T04:08:02.746Z,8.68
2017-05-18T04:10:35.331Z,9.08
2017-05-18T04:13:07.535Z,9.04
2017-05-18T04:15:38.331Z,9.28
2017-05-18T04:18:09.133Z,10.12
2017-05-18T04:20:41.829Z,8.16
2017-05-18T04:23:28.954Z,8.52
2017-05-18T04:26:09.778Z,8.40
2017-05-18T04:28:44.285Z,8.02
2017-05-18T04:34:36.409Z,7.74
2017-05-18T04:37:11.646Z,8.66
2017-05-18T04:39:45.500Z,8.76
2017-05-18T04:42:20.191Z,8.22
2017-05-18T04:44:55.562Z,7.78
2017-05-18T04:47:30.028Z,8.70
2017-05-18T04:50:04.011Z,9.16
2017-05-18T04:52:37.448Z,7.92
2017-05-18T04:55:11.382Z,8.02
2017-05-18T04:57:46.987Z,9.22
2017-05-18T05:00:20.355Z,9.30
2017-05-18T05:02:54.411Z,8.36
2017-05-18T05:05:25.848Z,9.70
2017-05-18T05:07:56.679Z,8.54
2017-05-18T05:10:27.520Z,9.00
2017-05-18T05:12:58.302Z,9.12
2017-05-18T05:15:29.109Z,8.58
2017-05-18T05:17:59.976Z,9.96
2017-05-18T05:20:30.784Z,10.62
2017-05-18T05:23:01.621Z,8.66
2017-05-18T05:25:32.453Z,8.20
2017-05-18T05:28:03.336Z,6.72
2017-05-18T05:30:34.135Z,9.60
2017-05-18T05:33:05.766Z,11.62
2017-05-18T05:35:36.996Z,11.48
2017-05-18T05:38:07.831Z,9.32
2017-05-18T05:40:38.656Z,7.32
2017-05-18T05:43:09.524Z,8.70
2017-05-18T05:45:40.327Z,8.12
2017-05-18T05:48:11.154Z,7.38
2017-05-18T05:50:42.042Z,10.22
2017-05-18T05:53:12.935Z,8.40
2017-05-18T05:55:43.701Z,8.42
2017-05-18T05:58:14.574Z,7.42
2017-05-18T06:00:45.342Z,7.46
2017-05-18T06:03:16.182Z,7.82
2017-05-18T06:05:47.068Z,8.36
2017-05-18T06:08:17.876Z,8.00
2017-05-18T06:10:48.739Z,8.74
2017-05-18T06:13:19.575Z,7.80
2017-05-18T06:15:50.377Z,7.80
2017-05-18T06:18:21.213Z,10.02
2017-05-18T06:20:52.023Z,7.24
2017-05-18T06:23:22.842Z,7.74
2017-05-18T06:25:53.602Z,7.88
2017-05-18T06:28:24.439Z,6.50
2017-05-18T06:30:55.220Z,8.18
2017-05-18T06:33:26.059Z,8.40
2017-05-18T06:35:57.838Z,7.36
2017-05-18T06:38:30.247Z,6.82
2017-05-18T06:41:03.916Z,6.84
2017-05-18T06:43:35.420Z,7.52
2017-05-18T06:46:06.186Z,7.22
2017-05-18T06:48:37.065Z,7.52
2017-05-18T06:51:07.874Z,10.52
2017-05-18T06:53:38.753Z,7.26
2017-05-18T06:56:09.564Z,8.42
2017-05-18T06:58:40.421Z,9.36
2017-05-18T07:01:11.214Z,6.98
2017-05-18T07:03:42.110Z,8.74
2017-05-18T07:06:12.891Z,7.30
2017-05-18T07:08:43.724Z,6.46
2017-05-18T07:11:14.500Z,8.22
2017-05-18T07:13:45.325Z,7.16
2017-05-18T07:16:16.093Z,6.34
2017-05-18T07:18:47.095Z,6.58
2017-05-18T07:21:17.892Z,6.52
2017-05-18T07:23:48.703Z,6.80
2017-05-18T07:26:19.510Z,7.50
2017-05-18T07:28:50.345Z,7.44
2017-05-18T07:31:21.108Z,7.66
2017-05-18T07:33:51.909Z,6.62
2017-05-18T07:36:22.688Z,9.12
2017-05-18T07:38:53.514Z,7.06
2017-05-18T07:41:24.312Z,6.94
2017-05-18T07:43:55.169Z,7.10
2017-05-18T07:46:25.951Z,7.62
2017-05-18T07:48:56.773Z,8.06
2017-05-18T07:51:27.542Z,7.32
2017-05-18T07:53:58.367Z,11.08
2017-05-18T07:56:29.230Z,6.78
2017-05-18T07:58:59.943Z,7.40
2017-05-18T08:01:30.730Z,9.30
2017-05-18T08:04:01.574Z,7.42
2017-05-18T08:06:33.869Z,7.00
2017-05-18T08:09:03.969Z,7.20
2017-05-18T08:11:34.808Z,7.04
2017-05-18T08:14:05.631Z,7.58
2017-05-18T08:16:36.405Z,7.78
2017-05-18T08:19:07.310Z,6.46
2017-05-18T08:21:38.149Z,6.72
2017-05-18T08:24:09.067Z,6.56
2017-05-18T08:26:39.837Z,7.12
2017-05-18T08:29:10.655Z,5.72
2017-05-18T08:31:41.429Z,6.88
2017-05-18T08:34:12.251Z,6.62
2017-05-18T08:36:43.063Z,7.86
2017-05-18T08:39:13.908Z,6.92
2017-05-18T08:41:44.732Z,6.26
2017-05-18T08:44:15.596Z,7.72
2017-05-18T08:46:46.396Z,8.70
2017-05-18T08:49:17.309Z,5.14
2017-05-18T08:51:48.097Z,5.92
2017-05-18T08:54:18.931Z,6.58
2017-05-18T08:56:49.703Z,5.92
2017-05-18T08:59:20.572Z,5.88
2017-05-18T09:01:51.386Z,5.60
2017-05-18T09:04:22.281Z,8.80
2017-05-18T09:06:53.058Z,6.36
2017-05-18T09:09:23.859Z,5.86
2017-05-18T09:11:54.693Z,5.88
2017-05-18T09:14:25.507Z,6.38
2017-05-18T09:16:56.306Z,8.68
2017-05-18T09:19:27.168Z,6.22
2017-05-18T09:21:57.937Z,6.46
2017-05-18T09:24:28.793Z,7.28
2017-05-18T09:26:59.674Z,7.60
2017-05-18T09:29:30.478Z,6.98
2017-05-18T09:32:01.275Z,6.36
2017-05-18T09:34:32.108Z,6.00
2017-05-18T09:37:02.709Z,7.70
2017-05-18T09:39:33.512Z,6.76
2017-05-18T09:42:04.305Z,10.24
2017-05-18T09:44:35.145Z,7.92
2017-05-18T09:47:05.963Z,5.66
2017-05-18T09:49:36.825Z,4.88
2017-05-18T09:52:07.596Z,5.98
2017-05-18T09:54:39.512Z,5.92
2017-05-18T09:57:10.281Z,6.94
2017-05-18T09:59:41.241Z,5.64
2017-05-18T10:02:12.059Z,5.62
2017-05-18T10:04:43.025Z,5.52
2017-05-18T10:07:13.781Z,6.58
2017-05-18T10:09:44.610Z,7.14
2017-05-18T10:12:15.383Z,5.98
2017-05-18T10:14:46.219Z,6.98
2017-05-18T10:17:17.006Z,5.40
2017-05-18T10:19:47.851Z,6.44
2017-05-18T10:22:18.620Z,5.94
2017-05-18T10:24:49.484Z,6.04
2017-05-18T10:27:20.258Z,6.76
2017-05-18T10:29:51.066Z,5.92
2017-05-18T10:32:21.863Z,5.46
2017-05-18T10:34:52.705Z,5.28
2017-05-18T10:37:23.481Z,5.34
2017-05-18T10:39:54.302Z,5.72
2017-05-18T10:42:25.075Z,4.80
2017-05-18T10:44:55.888Z,5.26
2017-05-18T10:47:26.657Z,5.62
2017-05-18T10:49:57.480Z,5.50
2017-05-18T10:52:28.258Z,7.74
2017-05-18T10:54:58.736Z,8.38
2017-05-18T10:57:29.530Z,5.22
2017-05-18T11:00:00.429Z,4.34
2017-05-18T11:02:31.238Z,5.78
2017-05-18T11:05:01.691Z,4.96
2017-05-18T11:07:32.473Z,5.52
2017-05-18T11:10:03.327Z,5.54
2017-05-18T11:12:33.733Z,6.20
2017-05-18T11:15:04.166Z,6.94
2017-05-18T11:17:34.935Z,5.04
2017-05-18T11:20:05.778Z,5.24
2017-05-18T11:22:36.558Z,4.98
2017-05-18T11:25:08.500Z,4.92
2017-05-18T11:27:39.397Z,4.36
2017-05-18T11:30:10.242Z,5.28
2017-05-18T11:32:41.057Z,4.52
2017-05-18T11:35:11.912Z,4.06
2017-05-18T11:37:42.747Z,4.48
2017-05-18T11:40:13.577Z,5.58
2017-05-18T11:42:44.357Z,5.14
2017-05-18T11:45:15.191Z,4.52
2017-05-18T11:47:45.963Z,4.86
2017-05-18T11:50:16.832Z,4.98
2017-05-18T11:52:47.649Z,3.84
2017-05-18T11:55:18.473Z,4.04
2017-05-18T11:57:49.291Z,4.48
2017-05-18T12:00:20.168Z,4.00
2017-05-18T12:02:50.946Z,4.22
2017-05-18T12:05:21.762Z,4.42
2017-05-18T12:07:52.564Z,5.08
2017-05-18T12:10:23.397Z,4.52
2017-05-18T12:12:54.164Z,4.10
2017-05-18T12:15:24.989Z,4.42
2017-05-18T12:17:55.762Z,3.50
2017-05-18T12:20:26.397Z,4.60
2017-05-18T12:22:57.178Z,4.52
2017-05-18T12:25:28.144Z,4.00
2017-05-18T12:27:59.005Z,4.06
2017-05-18T12:30:29.856Z,4.22
2017-05-18T12:33:00.276Z,4.50
2017-05-18T12:35:31.072Z,5.72
2017-05-18T12:38:01.852Z,3.90
2017-05-18T12:40:32.689Z,4.48
2017-05-18T12:43:03.533Z,4.24
2017-05-18T12:45:33.974Z,4.48
2017-05-18T12:48:04.776Z,4.22
2017-05-18T12:50:35.609Z,4.52
2017-05-18T12:53:06.374Z,5.04
2017-05-18T12:55:37.194Z,4.70
2017-05-18T12:58:07.984Z,4.60
2017-05-18T13:00:38.963Z,5.56
2017-05-18T13:03:09.773Z,4.98
2017-05-18T13:05:40.576Z,4.92
2017-05-18T13:08:11.342Z,4.00
2017-05-18T13:10:42.170Z,4.30
2017-05-18T13:13:12.957Z,5.48
2017-05-18T13:15:43.770Z,4.48
2017-05-18T13:18:14.549Z,6.22
2017-05-18T13:20:45.391Z,4.04
2017-05-18T13:23:16.809Z,3.84
2017-05-18T13:25:48.321Z,3.94
2017-05-18T13:28:19.084Z,3.64
2017-05-18T13:30:49.945Z,3.46
2017-05-18T13:33:20.709Z,5.20
2017-05-18T13:35:51.527Z,4.22
2017-05-18T13:39:24.776Z,5.02
2017-05-18T13:41:55.623Z,5.52
2017-05-18T13:44:26.414Z,4.02
2017-05-18T13:46:57.290Z,3.82
2017-05-18T13:49:28.949Z,4.20
2017-05-18T13:51:59.814Z,4.40
2017-05-18T13:54:30.602Z,5.54
2017-05-18T13:57:01.393Z,3.76
2017-05-18T13:59:32.176Z,4.60
2017-05-18T14:02:03.045Z,4.04
2017-05-18T14:04:33.817Z,6.64
2017-05-18T14:07:04.636Z,3.86
2017-05-18T14:09:35.415Z,5.98
2017-05-18T14:12:07.096Z,3.92
2017-05-18T14:14:37.877Z,5.36
2017-05-18T14:17:08.885Z,6.14
2017-05-18T14:19:39.693Z,5.40
2017-05-18T14:22:11.031Z,4.68
2017-05-18T14:24:42.501Z,4.60
2017-05-18T14:27:13.327Z,4.40
2017-05-18T14:29:44.097Z,4.00
2017-05-18T14:32:14.920Z,3.92
2017-05-18T14:34:45.678Z,3.52
2017-05-18T14:37:16.757Z,3.46
2017-05-18T14:39:47.618Z,4.92
2017-05-18T14:42:18.506Z,4.48
2017-05-18T14:44:49.279Z,3.80
2017-05-18T14:47:20.133Z,6.06
2017-05-18T14:49:50.918Z,4.94
2017-05-18T14:52:21.748Z,4.32
2017-05-18T14:54:52.521Z,4.32
2017-05-18T14:57:23.318Z,3.52
2017-05-18T14:59:54.085Z,3.94
2017-05-18T15:02:24.940Z,3.42
2017-05-18T15:04:56.447Z,3.32
2017-05-18T15:07:27.248Z,3.34
2017-05-18T15:09:59.852Z,6.08
2017-05-18T15:12:32.304Z,6.82
2017-05-18T15:15:05.402Z,4.06
2017-05-18T15:17:36.640Z,5.86
2017-05-18T15:20:08.245Z,3.50
2017-05-18T15:22:41.053Z,3.80
2017-05-18T15:25:14.030Z,3.16
2017-05-18T15:27:47.724Z,3.62
2017-05-18T15:30:20.198Z,5.34
2017-05-18T15:32:52.363Z,4.24
2017-05-18T15:35:26.249Z,3.44
2017-05-18T15:37:59.406Z,4.14
2017-05-18T15:40:33.088Z,3.80
2017-05-18T15:43:04.588Z,4.56
2017-05-18T15:48:44.360Z,3.74
2017-05-18T15:51:16.674Z,5.74
2017-05-18T15:53:48.636Z,3.44
2017-05-18T15:56:19.504Z,4.10
2017-05-18T15:58:50.275Z,3.32
2017-05-18T16:01:21.035Z,3.30
2017-05-18T16:03:51.815Z,4.96
2017-05-18T16:06:23.519Z,3.76
2017-05-18T16:08:55.933Z,4.82
2017-05-18T16:11:26.939Z,5.22
2017-05-18T16:14:00.208Z,5.06
2017-05-18T16:16:31.707Z,5.36
2017-05-18T16:19:04.070Z,5.56
2017-05-18T16:21:36.165Z,3.18
2017-05-18T16:24:08.601Z,3.54
2017-05-18T16:26:41.126Z,2.66
2017-05-18T16:29:13.657Z,3.12
2017-05-18T16:31:47.397Z,3.98
2017-05-18T16:34:20.128Z,3.14
2017-05-18T16:36:52.908Z,3.24
2017-05-18T16:39:25.720Z,2.98
2017-05-18T16:41:57.792Z,3.22
2017-05-18T16:44:30.163Z,2.84
2017-05-18T16:47:02.237Z,3.48
2017-05-18T16:49:34.360Z,3.40
2017-05-18T16:52:06.508Z,3.12
2017-05-18T16:54:39.490Z,4.42
2017-05-18T16:57:11.445Z,2.66
2017-05-18T16:59:45.910Z,3.08
2017-05-18T17:02:17.110Z,4.14
2017-05-18T17:04:48.653Z,3.70
2017-05-18T17:07:22.215Z,3.44
2017-05-18T17:09:55.557Z,5.10
2017-05-18T17:12:27.494Z,5.10
2017-05-18T17:14:59.850Z,3.74
2017-05-18T17:17:33.679Z,3.70
2017-05-18T17:20:06.009Z,4.88
2017-05-18T17:22:38.171Z,5.32
2017-05-18T17:25:09.856Z,3.62
2017-05-18T17:27:40.932Z,3.94
2017-05-18T17:30:11.739Z,4.10
2017-05-18T17:32:43.801Z,4.38
2017-05-18T17:35:14.585Z,3.74
2017-05-18T17:37:45.902Z,3.60
2017-05-18T17:40:16.759Z,3.76
2017-05-18T17:42:47.565Z,5.64
2017-05-18T17:45:18.366Z,6.06
2017-05-18T17:47:49.163Z,5.96
2017-05-18T17:50:20.055Z,12.06
2017-05-18T17:52:51.932Z,4.06
2017-05-18T17:55:23.578Z,9.90
2017-05-18T17:57:54.321Z,6.62
2017-05-18T18:00:25.104Z,4.14
2017-05-18T18:02:55.633Z,5.06
2017-05-18T18:05:26.443Z,7.84
2017-05-18T18:07:58.135Z,6.76
2017-05-18T18:10:31.327Z,4.70
2017-05-18T18:13:07.308Z,6.62
2017-05-18T18:15:41.799Z,5.18
2017-05-18T18:18:14.925Z,4.64
2017-05-18T18:20:48.803Z,5.66
2017-05-18T18:23:23.229Z,5.86
2017-05-18T18:25:57.631Z,5.66
2017-05-18T18:28:30.754Z,5.22
2017-05-18T18:31:01.551Z,6.18
2017-05-18T18:33:32.279Z,5.34
2017-05-18T18:36:03.064Z,5.36
2017-05-18T18:38:34.538Z,4.50
2017-05-18T18:41:05.294Z,4.42
2017-05-18T18:43:36.086Z,4.48
2017-05-18T18:46:06.952Z,5.52
2017-05-18T18:48:37.766Z,5.32
2017-05-18T18:51:08.557Z,5.14
2017-05-18T18:53:39.516Z,5.88
2017-05-18T18:56:11.190Z,4.60
2017-05-18T18:58:42.034Z,6.12
2017-05-18T19:01:12.814Z,5.04
2017-05-18T19:03:43.576Z,6.20
2017-05-18T19:06:14.478Z,5.34
2017-05-18T19:08:45.372Z,5.18
2017-05-18T19:11:16.304Z,4.72
2017-05-18T19:13:47.235Z,4.76
2017-05-18T19:16:18.339Z,4.86
2017-05-18T19:18:49.573Z,4.44
2017-05-18T19:21:20.375Z,4.64
2017-05-18T19:23:51.111Z,4.66
2017-05-18T19:26:22.782Z,4.86
2017-05-18T19:28:53.646Z,4.88
2017-05-18T19:31:24.601Z,6.28
2017-05-18T19:33:55.037Z,4.62
2017-05-18T19:36:25.866Z,4.22
2017-05-18T19:38:56.601Z,4.40
2017-05-18T19:41:28.463Z,4.88
2017-05-18T19:43:59.213Z,4.90
2017-05-18T19:46:30.139Z,6.16
2017-05-18T19:49:01.771Z,4.68
2017-05-18T19:51:33.450Z,4.86
2017-05-18T19:54:05.034Z,4.88
2017-05-18T19:56:37.636Z,5.24
2017-05-18T19:59:10.457Z,5.50
2017-05-18T20:01:41.982Z,6.42
2017-05-18T20:04:12.816Z,6.20
2017-05-18T20:06:43.766Z,6.22
2017-05-18T20:09:14.519Z,6.36
2017-05-18T20:11:45.294Z,5.08
2017-05-18T20:14:17.195Z,4.80
2017-05-18T20:16:48.022Z,5.40
2017-05-18T20:19:18.798Z,5.06
2017-05-18T20:21:49.626Z,5.88
2017-05-18T20:24:21.244Z,5.60
2017-05-18T20:26:52.842Z,5.56
2017-05-18T20:29:23.627Z,5.90
2017-05-18T20:31:54.514Z,5.34
2017-05-18T20:34:25.284Z,4.84
2017-05-18T20:36:56.067Z,5.34
2017-05-18T20:39:26.802Z,5.94
2017-05-18T20:41:57.572Z,5.08
2017-05-18T20:44:28.292Z,4.92
2017-05-18T20:46:59.072Z,5.64
2017-05-18T20:49:29.887Z,4.84
2017-05-18T20:52:02.595Z,5.58
2017-05-18T20:54:33.337Z,4.40
2017-05-18T20:57:04.939Z,6.30
2017-05-18T20:59:35.697Z,5.80
2017-05-18T21:02:06.505Z,5.46
2017-05-18T21:04:37.252Z,5.30
2017-05-18T21:07:08.797Z,5.54
2017-05-18T21:09:39.646Z,5.32
2017-05-18T21:12:10.470Z,6.30
2017-05-18T21:14:42.256Z,9.70
2017-05-18T21:17:13.007Z,6.12
2017-05-18T21:19:43.754Z,5.78
2017-05-18T21:22:14.565Z,6.48
2017-05-18T21:24:45.308Z,6.14
2017-05-18T21:27:16.077Z,5.68
2017-05-18T21:29:46.810Z,5.66
2017-05-18T21:32:17.686Z,5.82
2017-05-18T21:34:48.507Z,6.04
2017-05-18T21:37:19.271Z,6.12
2017-05-18T21:39:50.053Z,8.52
2017-05-18T21:42:20.840Z,7.86
2017-05-18T21:44:51.562Z,5.80
2017-05-18T21:47:22.322Z,5.78
2017-05-18T21:49:53.064Z,6.20
2017-05-18T21:52:23.852Z,7.60
2017-05-18T21:54:54.578Z,6.16
2017-05-18T21:57:25.338Z,6.86
2017-05-18T21:59:56.061Z,5.92
2017-05-18T22:02:26.850Z,5.78
2017-05-18T22:04:57.571Z,5.82
2017-05-18T22:07:28.388Z,6.32
2017-05-18T22:09:59.145Z,6.72
2017-05-18T22:12:31.295Z,6.18
2017-05-18T22:15:02.071Z,6.06
2017-05-18T22:17:32.869Z,6.80
2017-05-18T22:20:03.631Z,6.96
2017-05-18T22:22:34.411Z,7.00
2017-05-18T22:25:05.137Z,6.50
2017-05-18T22:27:35.887Z,7.14
2017-05-18T22:30:07.364Z,6.82
2017-05-18T22:32:38.139Z,7.62
2017-05-18T22:35:11.778Z,7.56
2017-05-18T22:37:42.598Z,6.96
2017-05-18T22:40:13.320Z,6.60
2017-05-18T22:42:44.130Z,6.70
2017-05-18T22:45:14.854Z,7.62
2017-05-18T22:47:47.117Z,7.98
2017-05-18T22:50:17.915Z,7.58
2017-05-18T22:52:48.829Z,7.92
2017-05-18T22:55:19.551Z,8.80
2017-05-18T22:57:50.320Z,10.30
2017-05-18T23:00:22.183Z,8.20
2017-05-18T23:02:53.488Z,8.74
2017-05-18T23:05:24.035Z,8.78
2017-05-18T23:07:54.856Z,7.64
2017-05-18T23:10:26.321Z,8.24
2017-05-18T23:12:57.095Z,9.00
2017-05-18T23:15:27.838Z,9.08
2017-05-18T23:17:58.595Z,8.38
2017-05-18T23:20:29.341Z,8.28
2017-05-18T23:23:00.116Z,7.60
2017-05-18T23:25:30.842Z,8.42
2017-05-18T23:28:01.623Z,7.60
2017-05-18T23:30:32.381Z,8.26
2017-05-18T23:33:03.198Z,9.38
2017-05-18T23:35:33.911Z,9.50
2017-05-18T23:38:04.667Z,8.88
2017-05-18T23:40:36.634Z,9.82
2017-05-18T23:43:08.247Z,8.88
2017-05-18T23:45:39.118Z,8.54
2017-05-18T23:48:09.884Z,8.96
2017-05-18T23:50:40.627Z,10.10
2017-05-18T23:53:11.398Z,9.70
2017-05-18T23:55:42.112Z,10.88
2017-05-18T23:58:13.013Z,10.20
